sensor_id;sensor_type;location;lat;lon;timestamp;pressure;altitude;pressure_sealevel;temperature;humidity
70968;BME280;58629;48.808;8.820;2023-04-02T00:01:47;96322.63;;;6.66;95.87
70968;BME280;58629;48.808;8.820;2023-04-02T00:04:15;96322.22;;;6.68;96.06
70968;BME280;58629;48.808;8.820;2023-04-02T00:06:47;96317.66;;;6.72;96.53
70968;BME280;58629;48.808;8.820;2023-04-02T00:11:40;96334.88;;;6.76;95.74
70968;BME280;58629;48.808;8.820;2023-04-02T00:14:32;96327.72;;;6.77;95.67
70968;BME280;58629;48.808;8.820;2023-04-02T00:17:00;96333.69;;;6.81;95.78
70968;BME280;58629;48.808;8.820;2023-04-02T00:22:24;96340.53;;;6.75;93.96
70968;BME280;58629;48.808;8.820;2023-04-02T00:24:52;96344.72;;;6.72;94.54
70968;BME280;58629;48.808;8.820;2023-04-02T00:27:18;96337.56;;;6.73;94.57
70968;BME280;58629;48.808;8.820;2023-04-02T00:29:53;96347.69;;;6.74;94.96
70968;BME280;58629;48.808;8.820;2023-04-02T00:32:26;96349.50;;;6.77;95.45
70968;BME280;58629;48.808;8.820;2023-04-02T00:34:53;96347.63;;;6.78;95.01
70968;BME280;58629;48.808;8.820;2023-04-02T00:37:23;96344.94;;;6.81;96.14
70968;BME280;58629;48.808;8.820;2023-04-02T00:39:55;96346.44;;;6.82;96.71
70968;BME280;58629;48.808;8.820;2023-04-02T00:42:23;96348.31;;;6.82;97.11
70968;BME280;58629;48.808;8.820;2023-04-02T00:44:49;96346.03;;;6.84;97.16
70968;BME280;58629;48.808;8.820;2023-04-02T00:47:24;96352.38;;;6.86;96.63
70968;BME280;58629;48.808;8.820;2023-04-02T00:49:57;96352.03;;;6.84;97.00
70968;BME280;58629;48.808;8.820;2023-04-02T00:52:28;96355.38;;;6.88;97.51
70968;BME280;58629;48.808;8.820;2023-04-02T00:55:04;96349.00;;;6.86;97.33
70968;BME280;58629;48.808;8.820;2023-04-02T00:57:30;96349.81;;;6.83;96.54
70968;BME280;58629;48.808;8.820;2023-04-02T01:02:40;96348.66;;;6.84;95.93
70968;BME280;58629;48.808;8.820;2023-04-02T01:07:59;96352.72;;;6.88;96.77
70968;BME280;58629;48.808;8.820;2023-04-02T01:16:14;96363.25;;;6.88;95.31
70968;BME280;58629;48.808;8.820;2023-04-02T01:18:58;96365.41;;;6.93;95.27
70968;BME280;58629;48.808;8.820;2023-04-02T01:21:48;96362.16;;;6.86;94.62
70968;BME280;58629;48.808;8.820;2023-04-02T01:24:18;96375.66;;;6.88;95.17
70968;BME280;58629;48.808;8.820;2023-04-02T01:26:57;96370.75;;;6.90;94.91
70968;BME280;58629;48.808;8.820;2023-04-02T01:31:52;96370.19;;;6.79;95.04
70968;BME280;58629;48.808;8.820;2023-04-02T01:34:22;96379.53;;;6.80;94.89
70968;BME280;58629;48.808;8.820;2023-04-02T01:41:53;96378.78;;;6.79;94.60
70968;BME280;58629;48.808;8.820;2023-04-02T01:44:36;96392.41;;;6.74;95.09
70968;BME280;58629;48.808;8.820;2023-04-02T01:47:05;96382.63;;;6.75;96.05
70968;BME280;58629;48.808;8.820;2023-04-02T01:49:34;96383.34;;;6.79;95.59
70968;BME280;58629;48.808;8.820;2023-04-02T01:52:00;96386.34;;;6.77;95.00
70968;BME280;58629;48.808;8.820;2023-04-02T01:54:25;96390.75;;;6.84;96.17
70968;BME280;58629;48.808;8.820;2023-04-02T01:56:54;96390.69;;;6.87;95.81
70968;BME280;58629;48.808;8.820;2023-04-02T01:59:21;96390.31;;;6.89;95.29
70968;BME280;58629;48.808;8.820;2023-04-02T02:01:53;96397.06;;;6.90;95.44
70968;BME280;58629;48.808;8.820;2023-04-02T02:04:22;96388.81;;;6.88;95.06
70968;BME280;58629;48.808;8.820;2023-04-02T02:06:48;96395.53;;;6.92;95.40
70968;BME280;58629;48.808;8.820;2023-04-02T02:09:18;96398.50;;;6.94;95.45
70968;BME280;58629;48.808;8.820;2023-04-02T02:11:47;96395.19;;;6.90;95.38
70968;BME280;58629;48.808;8.820;2023-04-02T02:14:16;96397.06;;;6.90;95.61
70968;BME280;58629;48.808;8.820;2023-04-02T02:16:44;96407.94;;;6.92;95.55
70968;BME280;58629;48.808;8.820;2023-04-02T02:19:25;96410.16;;;6.93;95.65
70968;BME280;58629;48.808;8.820;2023-04-02T02:21:53;96408.63;;;6.96;96.33
70968;BME280;58629;48.808;8.820;2023-04-02T02:24:27;96409.44;;;6.93;96.04
70968;BME280;58629;48.808;8.820;2023-04-02T02:30:16;96414.66;;;6.96;95.89
70968;BME280;58629;48.808;8.820;2023-04-02T02:32:59;96417.63;;;6.98;96.02
70968;BME280;58629;48.808;8.820;2023-04-02T02:38:11;96419.63;;;6.91;95.65
70968;BME280;58629;48.808;8.820;2023-04-02T02:40:42;96417.69;;;6.95;95.74
70968;BME280;58629;48.808;8.820;2023-04-02T02:43:11;96421.44;;;6.94;95.87
70968;BME280;58629;48.808;8.820;2023-04-02T02:45:39;96418.88;;;6.90;95.51
70968;BME280;58629;48.808;8.820;2023-04-02T02:48:11;96415.84;;;6.92;96.64
70968;BME280;58629;48.808;8.820;2023-04-02T02:50:37;96426.72;;;6.94;97.25
70968;BME280;58629;48.808;8.820;2023-04-02T02:53:07;96430.44;;;6.96;97.31
70968;BME280;58629;48.808;8.820;2023-04-02T02:55:37;96425.53;;;6.98;96.74
70968;BME280;58629;48.808;8.820;2023-04-02T02:58:06;96425.53;;;6.98;96.40
70968;BME280;58629;48.808;8.820;2023-04-02T03:00:34;96430.53;;;6.89;96.92
70968;BME280;58629;48.808;8.820;2023-04-02T03:03:03;96424.41;;;6.96;96.66
70968;BME280;58629;48.808;8.820;2023-04-02T03:05:29;96420.66;;;6.97;96.99
70968;BME280;58629;48.808;8.820;2023-04-02T03:07:56;96436.41;;;7.00;97.00
70968;BME280;58629;48.808;8.820;2023-04-02T03:10:35;96428.09;;;7.02;96.80
70968;BME280;58629;48.808;8.820;2023-04-02T03:13:11;96438.22;;;7.03;96.67
70968;BME280;58629;48.808;8.820;2023-04-02T03:19:00;96444.97;;;7.05;97.00
70968;BME280;58629;48.808;8.820;2023-04-02T03:21:43;96436.75;;;7.03;97.18
70968;BME280;58629;48.808;8.820;2023-04-02T03:24:32;96446.16;;;7.00;96.29
70968;BME280;58629;48.808;8.820;2023-04-02T03:27:16;96446.13;;;7.03;97.49
70968;BME280;58629;48.808;8.820;2023-04-02T03:29:49;96454.06;;;7.00;96.89
70968;BME280;58629;48.808;8.820;2023-04-02T03:32:31;96457.41;;;7.04;96.74
70968;BME280;58629;48.808;8.820;2023-04-02T03:35:47;96459.69;;;7.02;96.98
70968;BME280;58629;48.808;8.820;2023-04-02T03:38:12;96467.97;;;7.00;97.26
70968;BME280;58629;48.808;8.820;2023-04-02T03:40:43;96474.72;;;7.01;97.55
70968;BME280;58629;48.808;8.820;2023-04-02T03:43:30;96474.84;;;6.94;96.78
70968;BME280;58629;48.808;8.820;2023-04-02T03:46:17;96472.19;;;6.94;97.23
70968;BME280;58629;48.808;8.820;2023-04-02T03:48:59;96470.81;;;6.86;97.20
70968;BME280;58629;48.808;8.820;2023-04-02T03:51:39;96477.19;;;6.89;97.67
70968;BME280;58629;48.808;8.820;2023-04-02T03:54:13;96478.66;;;6.90;98.04
70968;BME280;58629;48.808;8.820;2023-04-02T03:56:40;96481.28;;;6.90;97.03
70968;BME280;58629;48.808;8.820;2023-04-02T03:59:29;96483.13;;;6.93;97.92
70968;BME280;58629;48.808;8.820;2023-04-02T04:01:59;96486.19;;;6.88;97.15
70968;BME280;58629;48.808;8.820;2023-04-02T04:04:28;96492.25;;;6.85;97.36
70968;BME280;58629;48.808;8.820;2023-04-02T04:06:56;96492.69;;;6.80;98.08
70968;BME280;58629;48.808;8.820;2023-04-02T04:09:28;96497.59;;;6.78;98.62
70968;BME280;58629;48.808;8.820;2023-04-02T04:15:35;96499.75;;;6.86;98.30
70968;BME280;58629;48.808;8.820;2023-04-02T04:18:25;96495.59;;;6.89;98.15
70968;BME280;58629;48.808;8.820;2023-04-02T04:21:01;96502.00;;;6.88;98.40
70968;BME280;58629;48.808;8.820;2023-04-02T04:23:31;96504.53;;;6.95;98.11
70968;BME280;58629;48.808;8.820;2023-04-02T04:26:00;96502.34;;;6.90;96.93
70968;BME280;58629;48.808;8.820;2023-04-02T04:29:06;96506.13;;;6.89;97.73
70968;BME280;58629;48.808;8.820;2023-04-02T04:31:40;96504.31;;;6.82;97.76
70968;BME280;58629;48.808;8.820;2023-04-02T04:34:14;96511.13;;;6.80;97.92
70968;BME280;58629;48.808;8.820;2023-04-02T04:36:48;96511.50;;;6.78;97.77
70968;BME280;58629;48.808;8.820;2023-04-02T04:39:54;96517.47;;;6.82;97.72
70968;BME280;58629;48.808;8.820;2023-04-02T04:42:29;96524.91;;;6.87;97.85
70968;BME280;58629;48.808;8.820;2023-04-02T04:47:31;96542.22;;;6.88;97.36
70968;BME280;58629;48.808;8.820;2023-04-02T04:50:30;96542.22;;;6.88;98.14
70968;BME280;58629;48.808;8.820;2023-04-02T04:53:04;96534.75;;;6.83;97.25
70968;BME280;58629;48.808;8.820;2023-04-02T04:55:38;96538.94;;;6.81;97.68
70968;BME280;58629;48.808;8.820;2023-04-02T04:58:23;96548.72;;;6.80;97.90
70968;BME280;58629;48.808;8.820;2023-04-02T05:03:30;96555.06;;;6.83;98.70
70968;BME280;58629;48.808;8.820;2023-04-02T05:06:22;96557.34;;;6.81;97.46
70968;BME280;58629;48.808;8.820;2023-04-02T05:08:49;96551.69;;;6.82;97.29
70968;BME280;58629;48.808;8.820;2023-04-02T05:11:25;96558.72;;;6.92;97.23
70968;BME280;58629;48.808;8.820;2023-04-02T05:14:11;96566.97;;;6.94;97.01
70968;BME280;58629;48.808;8.820;2023-04-02T05:16:52;96574.19;;;6.87;96.37
70968;BME280;58629;48.808;8.820;2023-04-02T05:27:27;96581.28;;;6.90;97.24
70968;BME280;58629;48.808;8.820;2023-04-02T05:32:54;96579.84;;;6.85;97.45
70968;BME280;58629;48.808;8.820;2023-04-02T05:35:28;96588.06;;;6.91;97.42
70968;BME280;58629;48.808;8.820;2023-04-02T05:37:53;96592.94;;;6.92;96.75
70968;BME280;58629;48.808;8.820;2023-04-02T05:40:24;96588.78;;;6.91;97.16
70968;BME280;58629;48.808;8.820;2023-04-02T05:42:51;96594.44;;;6.90;96.97
70968;BME280;58629;48.808;8.820;2023-04-02T05:45:33;96597.38;;;6.95;96.52
70968;BME280;58629;48.808;8.820;2023-04-02T05:48:06;96599.66;;;6.93;96.55
70968;BME280;58629;48.808;8.820;2023-04-02T05:50:40;96603.06;;;6.94;96.29
70968;BME280;58629;48.808;8.820;2023-04-02T05:56:06;96603.81;;;6.94;96.45
70968;BME280;58629;48.808;8.820;2023-04-02T05:58:41;96603.81;;;6.94;96.33
70968;BME280;58629;48.808;8.820;2023-04-02T06:01:52;96605.34;;;6.92;96.49
70968;BME280;58629;48.808;8.820;2023-04-02T06:12:14;96626.97;;;7.07;96.55
70968;BME280;58629;48.808;8.820;2023-04-02T06:14:42;96632.66;;;7.05;95.55
70968;BME280;58629;48.808;8.820;2023-04-02T06:17:12;96632.19;;;7.10;95.31
70968;BME280;58629;48.808;8.820;2023-04-02T06:19:39;96631.78;;;7.12;95.98
70968;BME280;58629;48.808;8.820;2023-04-02T06:22:34;96636.28;;;7.15;95.73
70968;BME280;58629;48.808;8.820;2023-04-02T06:25:09;96631.03;;;7.15;95.68
70968;BME280;58629;48.808;8.820;2023-04-02T06:27:38;96637.72;;;7.19;95.33
70968;BME280;58629;48.808;8.820;2023-04-02T06:30:14;96644.88;;;7.19;94.38
70968;BME280;58629;48.808;8.820;2023-04-02T06:32:40;96646.66;;;7.25;94.32
70968;BME280;58629;48.808;8.820;2023-04-02T06:35:07;96653.09;;;7.24;94.55
70968;BME280;58629;48.808;8.820;2023-04-02T06:37:37;96660.53;;;7.29;95.05
70968;BME280;58629;48.808;8.820;2023-04-02T06:40:23;96653.69;;;7.35;94.95
70968;BME280;58629;48.808;8.820;2023-04-02T06:42:50;96660.47;;;7.36;95.32
70968;BME280;58629;48.808;8.820;2023-04-02T06:45:33;96660.41;;;7.40;94.31
70968;BME280;58629;48.808;8.820;2023-04-02T06:48:01;96663.44;;;7.38;93.38
70968;BME280;58629;48.808;8.820;2023-04-02T06:51:15;96667.91;;;7.41;94.22
70968;BME280;58629;48.808;8.820;2023-04-02T06:53:44;96672.78;;;7.43;94.24
70968;BME280;58629;48.808;8.820;2023-04-02T06:59:01;96674.28;;;7.44;94.81
70968;BME280;58629;48.808;8.820;2023-04-02T07:01:34;96677.69;;;7.44;94.12
70968;BME280;58629;48.808;8.820;2023-04-02T07:04:00;96678.75;;;7.47;94.17
70968;BME280;58629;48.808;8.820;2023-04-02T07:06:25;96683.84;;;7.61;95.18
70968;BME280;58629;48.808;8.820;2023-04-02T07:08:51;96697.00;;;7.64;92.31
70968;BME280;58629;48.808;8.820;2023-04-02T07:11:19;96700.22;;;7.75;94.46
70968;BME280;58629;48.808;8.820;2023-04-02T07:13:46;96705.03;;;7.80;93.46
70968;BME280;58629;48.808;8.820;2023-04-02T07:16:25;96704.75;;;8.02;95.36
70968;BME280;58629;48.808;8.820;2023-04-02T07:18:52;96715.31;;;8.02;91.95
70968;BME280;58629;48.808;8.820;2023-04-02T07:21:17;96718.06;;;8.18;93.51
70968;BME280;58629;48.808;8.820;2023-04-02T07:23:43;96724.41;;;8.24;90.91
70968;BME280;58629;48.808;8.820;2023-04-02T07:26:13;96716.97;;;8.15;89.48
70968;BME280;58629;48.808;8.820;2023-04-02T07:28:39;96723.09;;;8.35;92.46
70968;BME280;58629;48.808;8.820;2023-04-02T07:31:16;96724.72;;;8.29;89.25
70968;BME280;58629;48.808;8.820;2023-04-02T07:33:42;96734.06;;;8.34;88.50
70968;BME280;58629;48.808;8.820;2023-04-02T07:36:12;96738.06;;;8.42;90.04
70968;BME280;58629;48.808;8.820;2023-04-02T07:38:38;96744.84;;;8.43;89.54
70968;BME280;58629;48.808;8.820;2023-04-02T07:41:04;96745.19;;;8.45;89.80
70968;BME280;58629;48.808;8.820;2023-04-02T07:43:30;96745.81;;;8.52;88.99
70968;BME280;58629;48.808;8.820;2023-04-02T07:45:56;96739.56;;;8.43;88.09
70968;BME280;58629;48.808;8.820;2023-04-02T07:48:21;96745.75;;;8.56;91.10
70968;BME280;58629;48.808;8.820;2023-04-02T07:50:47;96752.19;;;8.78;90.50
70968;BME280;58629;48.808;8.820;2023-04-02T07:55:52;96754.34;;;8.63;91.31
70968;BME280;58629;48.808;8.820;2023-04-02T07:58:17;96762.50;;;8.92;90.54
70968;BME280;58629;48.808;8.820;2023-04-02T08:00:42;96769.53;;;8.79;87.12
70968;BME280;58629;48.808;8.820;2023-04-02T08:03:09;96775.03;;;8.88;87.02
70968;BME280;58629;48.808;8.820;2023-04-02T08:05:35;96774.19;;;8.95;89.75
70968;BME280;58629;48.808;8.820;2023-04-02T08:08:00;96782.88;;;8.92;88.24
70968;BME280;58629;48.808;8.820;2023-04-02T08:10:25;96779.16;;;9.32;90.43
70968;BME280;58629;48.808;8.820;2023-04-02T08:12:50;96783.59;;;9.38;85.16
70968;BME280;58629;48.808;8.820;2023-04-02T08:15:16;96785.28;;;9.48;84.69
70968;BME280;58629;48.808;8.820;2023-04-02T08:17:42;96787.94;;;9.48;83.90
70968;BME280;58629;48.808;8.820;2023-04-02T08:20:14;96790.50;;;9.52;87.22
70968;BME280;58629;48.808;8.820;2023-04-02T08:22:42;96785.88;;;9.76;86.47
70968;BME280;58629;48.808;8.820;2023-04-02T08:25:08;96782.56;;;9.72;83.20
70968;BME280;58629;48.808;8.820;2023-04-02T08:27:33;96800.81;;;9.46;83.27
70968;BME280;58629;48.808;8.820;2023-04-02T08:29:59;96799.47;;;9.35;86.79
70968;BME280;58629;48.808;8.820;2023-04-02T08:32:24;96803.84;;;9.65;86.60
70968;BME280;58629;48.808;8.820;2023-04-02T08:34:53;96802.75;;;9.82;85.12
70968;BME280;58629;48.808;8.820;2023-04-02T08:37:18;96805.72;;;10.03;85.88
70968;BME280;58629;48.808;8.820;2023-04-02T08:39:43;96808.50;;;9.96;81.48
70968;BME280;58629;48.808;8.820;2023-04-02T08:47:34;96824.38;;;10.16;83.09
70968;BME280;58629;48.808;8.820;2023-04-02T08:52:58;96824.06;;;10.14;78.13
70968;BME280;58629;48.808;8.820;2023-04-02T08:55:37;96832.16;;;10.23;79.15
70968;BME280;58629;48.808;8.820;2023-04-02T09:00:58;96837.38;;;10.26;78.69
70968;BME280;58629;48.808;8.820;2023-04-02T09:03:30;96841.06;;;10.48;78.72
70968;BME280;58629;48.808;8.820;2023-04-02T09:06:01;96850.00;;;10.55;80.05
70968;BME280;58629;48.808;8.820;2023-04-02T09:08:30;96847.22;;;10.62;77.75
70968;BME280;58629;48.808;8.820;2023-04-02T09:13:29;96852.22;;;10.56;77.60
70968;BME280;58629;48.808;8.820;2023-04-02T09:16:14;96855.16;;;10.62;77.41
70968;BME280;58629;48.808;8.820;2023-04-02T09:18:42;96869.38;;;10.52;79.69
70968;BME280;58629;48.808;8.820;2023-04-02T09:23:46;96867.72;;;10.74;79.37
70968;BME280;58629;48.808;8.820;2023-04-02T09:26:22;96872.53;;;10.79;76.64
70968;BME280;58629;48.808;8.820;2023-04-02T09:28:50;96876.97;;;10.66;77.87
70968;BME280;58629;48.808;8.820;2023-04-02T09:31:25;96871.28;;;10.67;78.49
70968;BME280;58629;48.808;8.820;2023-04-02T09:33:54;96876.66;;;10.48;77.23
70968;BME280;58629;48.808;8.820;2023-04-02T09:36:38;96877.06;;;10.26;76.41
70968;BME280;58629;48.808;8.820;2023-04-02T09:39:22;96886.09;;;10.09;77.28
70968;BME280;58629;48.808;8.820;2023-04-02T09:41:47;96890.38;;;10.23;80.05
70968;BME280;58629;48.808;8.820;2023-04-02T09:44:27;96887.56;;;10.50;78.86
70968;BME280;58629;48.808;8.820;2023-04-02T09:46:57;96897.31;;;10.53;78.83
70968;BME280;58629;48.808;8.820;2023-04-02T09:49:29;96899.44;;;10.77;82.58
70968;BME280;58629;48.808;8.820;2023-04-02T09:52:19;96910.19;;;10.86;81.04
70968;BME280;58629;48.808;8.820;2023-04-02T09:54:46;96908.03;;;10.65;77.61
70968;BME280;58629;48.808;8.820;2023-04-02T09:57:28;96904.88;;;10.70;80.34
70968;BME280;58629;48.808;8.820;2023-04-02T10:00:15;96916.38;;;10.64;77.22
70968;BME280;58629;48.808;8.820;2023-04-02T10:02:42;96915.13;;;10.68;77.64
70968;BME280;58629;48.808;8.820;2023-04-02T10:05:20;96913.13;;;10.56;75.84
70968;BME280;58629;48.808;8.820;2023-04-02T10:07:50;96915.59;;;10.83;79.94
70968;BME280;58629;48.808;8.820;2023-04-02T10:12:44;96924.63;;;11.01;75.41
70968;BME280;58629;48.808;8.820;2023-04-02T10:15:20;96928.19;;;11.11;77.81
70968;BME280;58629;48.808;8.820;2023-04-02T10:17:56;96932.09;;;11.06;78.33
70968;BME280;58629;48.808;8.820;2023-04-02T10:20:25;96936.63;;;11.06;77.94
70968;BME280;58629;48.808;8.820;2023-04-02T10:22:52;96937.88;;;11.33;77.92
70968;BME280;58629;48.808;8.820;2023-04-02T10:25:20;96943.44;;;11.07;76.54
70968;BME280;58629;48.808;8.820;2023-04-02T10:27:57;96948.91;;;11.32;75.93
70968;BME280;58629;48.808;8.820;2023-04-02T10:30:36;96946.72;;;11.43;77.54
70968;BME280;58629;48.808;8.820;2023-04-02T10:35:42;96952.13;;;11.72;76.31
70968;BME280;58629;48.808;8.820;2023-04-02T10:40:45;96955.88;;;11.74;74.40
70968;BME280;58629;48.808;8.820;2023-04-02T10:46:06;96966.88;;;11.41;73.01
70968;BME280;58629;48.808;8.820;2023-04-02T10:48:53;96968.59;;;11.47;74.94
70968;BME280;58629;48.808;8.820;2023-04-02T10:51:43;96975.22;;;11.39;73.65
70968;BME280;58629;48.808;8.820;2023-04-02T10:54:44;96978.50;;;11.47;75.80
70968;BME280;58629;48.808;8.820;2023-04-02T10:57:21;96979.31;;;11.44;76.85
70968;BME280;58629;48.808;8.820;2023-04-02T11:03:05;96979.31;;;11.76;77.57
70968;BME280;58629;48.808;8.820;2023-04-02T11:05:45;96983.06;;;12.07;76.85
70968;BME280;58629;48.808;8.820;2023-04-02T11:08:37;96992.09;;;12.38;76.35
70968;BME280;58629;48.808;8.820;2023-04-02T11:11:15;96989.19;;;12.61;75.89
70968;BME280;58629;48.808;8.820;2023-04-02T11:14:09;96991.66;;;12.81;75.30
70968;BME280;58629;48.808;8.820;2023-04-02T11:16:36;96996.78;;;13.00;73.85
70968;BME280;58629;48.808;8.820;2023-04-02T11:26:50;96996.81;;;13.51;71.13
70968;BME280;58629;48.808;8.820;2023-04-02T11:29:28;97000.31;;;13.60;70.64
70968;BME280;58629;48.808;8.820;2023-04-02T11:32:37;97006.50;;;13.45;67.35
70968;BME280;58629;48.808;8.820;2023-04-02T11:35:23;97003.63;;;13.14;70.61
70968;BME280;58629;48.808;8.820;2023-04-02T11:37:50;97010.53;;;13.12;68.11
70968;BME280;58629;48.808;8.820;2023-04-02T11:42:47;97008.59;;;13.50;69.92
70968;BME280;58629;48.808;8.820;2023-04-02T11:50:29;97023.63;;;13.90;67.61
70968;BME280;58629;48.808;8.820;2023-04-02T11:52:58;97022.22;;;13.99;67.45
70968;BME280;58629;48.808;8.820;2023-04-02T11:55:34;97015.94;;;14.05;66.65
70968;BME280;58629;48.808;8.820;2023-04-02T12:09:23;97030.84;;;11.91;68.03
70968;BME280;58629;48.808;8.820;2023-04-02T12:11:52;97031.06;;;12.12;70.21
70968;BME280;58629;48.808;8.820;2023-04-02T12:17:16;97033.66;;;12.45;70.85
70968;BME280;58629;48.808;8.820;2023-04-02T12:22:37;97043.47;;;11.71;72.78
70968;BME280;58629;48.808;8.820;2023-04-02T12:25:06;97046.81;;;11.23;73.82
70968;BME280;58629;48.808;8.820;2023-04-02T12:27:42;97051.06;;;11.01;75.99
70968;BME280;58629;48.808;8.820;2023-04-02T12:32:42;97056.75;;;11.19;78.21
70968;BME280;58629;48.808;8.820;2023-04-02T12:35:27;97049.31;;;11.46;77.29
70968;BME280;58629;48.808;8.820;2023-04-02T12:37:54;97052.94;;;11.72;76.26
70968;BME280;58629;48.808;8.820;2023-04-02T12:40:21;97054.50;;;11.85;75.08
70968;BME280;58629;48.808;8.820;2023-04-02T12:42:46;97059.88;;;11.98;74.09
70968;BME280;58629;48.808;8.820;2023-04-02T12:45:26;97061.56;;;11.92;74.28
70968;BME280;58629;48.808;8.820;2023-04-02T12:47:52;97064.75;;;12.15;72.79
70968;BME280;58629;48.808;8.820;2023-04-02T12:50:19;97068.31;;;12.25;71.88
70968;BME280;58629;48.808;8.820;2023-04-02T12:52:49;97066.44;;;12.09;68.60
70968;BME280;58629;48.808;8.820;2023-04-02T12:55:20;97066.84;;;11.92;70.67
70968;BME280;58629;48.808;8.820;2023-04-02T12:57:46;97070.22;;;11.60;73.32
70968;BME280;58629;48.808;8.820;2023-04-02T13:02:48;97077.53;;;11.20;73.37
70968;BME280;58629;48.808;8.820;2023-04-02T13:05:32;97078.97;;;11.25;73.42
70968;BME280;58629;48.808;8.820;2023-04-02T13:07:58;97073.28;;;11.07;74.54
70968;BME280;58629;48.808;8.820;2023-04-02T13:10:25;97073.66;;;10.89;75.19
70968;BME280;58629;48.808;8.820;2023-04-02T13:12:58;97073.56;;;10.73;75.81
70968;BME280;58629;48.808;8.820;2023-04-02T13:15:32;97078.72;;;10.61;77.48
70968;BME280;58629;48.808;8.820;2023-04-02T13:18:18;97083.81;;;10.91;78.47
70968;BME280;58629;48.808;8.820;2023-04-02T13:21:04;97081.56;;;11.09;76.08
70968;BME280;58629;48.808;8.820;2023-04-02T13:25:58;97081.94;;;10.91;77.70
70968;BME280;58629;48.808;8.820;2023-04-02T13:28:24;97083.88;;;10.68;79.08
70968;BME280;58629;48.808;8.820;2023-04-02T13:30:49;97086.53;;;10.68;77.67
70968;BME280;58629;48.808;8.820;2023-04-02T13:33:15;97092.66;;;10.65;77.54
70968;BME280;58629;48.808;8.820;2023-04-02T13:35:41;97088.72;;;10.73;77.21
70968;BME280;58629;48.808;8.820;2023-04-02T13:38:07;97098.34;;;10.63;76.76
70968;BME280;58629;48.808;8.820;2023-04-02T13:40:33;97086.25;;;10.62;77.55
70968;BME280;58629;48.808;8.820;2023-04-02T13:43:00;97090.34;;;10.67;77.60
70968;BME280;58629;48.808;8.820;2023-04-02T13:45:30;97096.50;;;10.60;76.39
70968;BME280;58629;48.808;8.820;2023-04-02T13:47:56;97103.31;;;10.38;80.24
70968;BME280;58629;48.808;8.820;2023-04-02T13:50:26;97114.75;;;10.08;82.93
70968;BME280;58629;48.808;8.820;2023-04-02T13:52:52;97113.94;;;10.15;83.01
70968;BME280;58629;48.808;8.820;2023-04-02T13:55:20;97121.84;;;9.92;83.73
70968;BME280;58629;48.808;8.820;2023-04-02T13:57:47;97124.75;;;9.74;86.39
70968;BME280;58629;48.808;8.820;2023-04-02T14:00:15;97126.69;;;9.70;86.32
70968;BME280;58629;48.808;8.820;2023-04-02T14:02:44;97131.72;;;9.61;86.90
70968;BME280;58629;48.808;8.820;2023-04-02T14:05:20;97134.22;;;9.45;88.01
70968;BME280;58629;48.808;8.820;2023-04-02T14:08:08;97130.03;;;9.47;88.45
70968;BME280;58629;48.808;8.820;2023-04-02T14:10:48;97146.28;;;9.46;86.91
70968;BME280;58629;48.808;8.820;2023-04-02T14:13:40;97154.09;;;9.26;87.62
70968;BME280;58629;48.808;8.820;2023-04-02T14:24:38;97170.13;;;8.75;91.05
70968;BME280;58629;48.808;8.820;2023-04-02T14:30:00;97175.63;;;8.50;91.13
70968;BME280;58629;48.808;8.820;2023-04-02T14:35:36;97186.66;;;8.38;92.05
70968;BME280;58629;48.808;8.820;2023-04-02T14:38:16;97179.16;;;8.37;92.67
70968;BME280;58629;48.808;8.820;2023-04-02T14:40:48;97190.50;;;8.30;92.29
70968;BME280;58629;48.808;8.820;2023-04-02T14:43:25;97190.50;;;8.30;93.30
70968;BME280;58629;48.808;8.820;2023-04-02T14:49:08;97196.66;;;8.06;94.05
70968;BME280;58629;48.808;8.820;2023-04-02T14:51:41;97190.63;;;8.09;95.23
70968;BME280;58629;48.808;8.820;2023-04-02T14:54:13;97188.41;;;8.08;95.81
70968;BME280;58629;48.808;8.820;2023-04-02T14:56:51;97195.56;;;8.07;96.07
70968;BME280;58629;48.808;8.820;2023-04-02T15:01:49;97205.53;;;8.37;97.02
70968;BME280;58629;48.808;8.820;2023-04-02T15:04:19;97202.59;;;8.28;93.23
70968;BME280;58629;48.808;8.820;2023-04-02T15:06:50;97205.22;;;8.24;92.95
70968;BME280;58629;48.808;8.820;2023-04-02T15:09:23;97210.13;;;8.29;92.82
70968;BME280;58629;48.808;8.820;2023-04-02T15:11:54;97211.69;;;8.16;92.34
70968;BME280;58629;48.808;8.820;2023-04-02T15:14:29;97212.06;;;8.15;92.12
70968;BME280;58629;48.808;8.820;2023-04-02T15:16:56;97214.72;;;8.15;92.31
70968;BME280;58629;48.808;8.820;2023-04-02T15:19:22;97220.41;;;8.10;92.51
70968;BME280;58629;48.808;8.820;2023-04-02T15:22:03;97223.06;;;8.03;93.80
70968;BME280;58629;48.808;8.820;2023-04-02T15:27:30;97229.56;;;7.87;93.55
70968;BME280;58629;48.808;8.820;2023-04-02T15:37:57;97251.13;;;7.72;94.43
70968;BME280;58629;48.808;8.820;2023-04-02T15:49:04;97264.38;;;7.58;96.00
70968;BME280;58629;48.808;8.820;2023-04-02T15:54:29;97267.38;;;7.56;95.28
70968;BME280;58629;48.808;8.820;2023-04-02T16:02:50;97282.06;;;7.47;95.17
70968;BME280;58629;48.808;8.820;2023-04-02T16:11:22;97287.41;;;7.36;95.84
70968;BME280;58629;48.808;8.820;2023-04-02T16:13:48;97290.03;;;7.33;95.04
70968;BME280;58629;48.808;8.820;2023-04-02T16:16:29;97294.94;;;7.27;95.16
70968;BME280;58629;48.808;8.820;2023-04-02T16:21:57;97296.06;;;7.19;94.96
70968;BME280;58629;48.808;8.820;2023-04-02T16:24:25;97302.47;;;7.25;95.43
70968;BME280;58629;48.808;8.820;2023-04-02T16:29:55;97307.72;;;7.32;94.11
70968;BME280;58629;48.808;8.820;2023-04-02T16:41:01;97332.16;;;7.43;90.95
70968;BME280;58629;48.808;8.820;2023-04-02T16:43:42;97338.94;;;7.37;89.20
70968;BME280;58629;48.808;8.820;2023-04-02T16:46:25;97342.69;;;7.47;91.88
70968;BME280;58629;48.808;8.820;2023-04-02T16:49:01;97344.97;;;7.34;90.26
70968;BME280;58629;48.808;8.820;2023-04-02T16:51:36;97350.59;;;7.47;90.80
70968;BME280;58629;48.808;8.820;2023-04-02T16:54:10;97352.88;;;7.38;88.97
70968;BME280;58629;48.808;8.820;2023-04-02T16:56:50;97356.25;;;7.38;87.14
70968;BME280;58629;48.808;8.820;2023-04-02T16:59:39;97363.41;;;7.27;87.43
70968;BME280;58629;48.808;8.820;2023-04-02T17:07:41;97380.75;;;7.11;86.92
70968;BME280;58629;48.808;8.820;2023-04-02T17:10:30;97383.75;;;7.13;88.31
70968;BME280;58629;48.808;8.820;2023-04-02T17:15:37;97383.75;;;7.20;87.60